sensor_id;sensor_type;location;lat;lon;timestamp;P1;durP1;ratioP1;P2;durP2;ratioP2
66437;SDS011;54537;47.972;11.662;2022-10-16T08:28:50;2.80;;;1.15;;
66437;SDS011;54537;47.972;11.662;2022-10-16T08:31:19;2.63;;;1.60;;
66437;SDS011;54537;47.972;11.662;2022-10-16T08:33:45;1.63;;;1.20;;
66437;SDS011;54537;47.972;11.662;2022-10-16T08:36:12;2.53;;;1.25;;
66437;SDS011;54537;47.972;11.662;2022-10-16T08:38:40;2.95;;;1.35;;
66437;SDS011;54537;47.972;11.662;2022-10-16T08:44:04;2.42;;;1.52;;
66437;SDS011;54537;47.972;11.662;2022-10-16T08:46:36;2.67;;;1.60;;
66437;SDS011;54537;47.972;11.662;2022-10-16T08:49:08;2.33;;;1.30;;
66437;SDS011;54537;47.972;11.662;2022-10-16T08:51:36;2.50;;;1.30;;
66437;SDS011;54537;47.972;11.662;2022-10-16T08:54:03;1.92;;;1.55;;
66437;SDS011;54537;47.972;11.662;2022-10-16T08:56:30;1.75;;;1.35;;
66437;SDS011;54537;47.972;11.662;2022-10-16T08:58:57;3.05;;;1.42;;
66437;SDS011;54537;47.972;11.662;2022-10-16T09:01:27;3.35;;;1.30;;
66437;SDS011;54537;47.972;11.662;2022-10-16T09:04:03;2.35;;;1.50;;
66437;SDS011;54537;47.972;11.662;2022-10-16T09:06:35;2.45;;;1.60;;
66437;SDS011;54537;47.972;11.662;2022-10-16T09:09:15;2.58;;;1.50;;
66437;SDS011;54537;47.972;11.662;2022-10-16T09:11:45;2.88;;;1.33;;
66437;SDS011;54537;47.972;11.662;2022-10-16T09:14:25;2.40;;;1.48;;
66437;SDS011;54537;47.972;11.662;2022-10-16T09:16:57;2.25;;;1.60;;
66437;SDS011;54537;47.972;11.662;2022-10-16T09:19:27;2.15;;;1.10;;
66437;SDS011;54537;47.972;11.662;2022-10-16T09:21:57;3.22;;;1.33;;
66437;SDS011;54537;47.972;11.662;2022-10-16T09:24:26;2.15;;;1.42;;
66437;SDS011;54537;47.972;11.662;2022-10-16T09:26:52;4.80;;;1.42;;
66437;SDS011;54537;47.972;11.662;2022-10-16T09:29:21;3.83;;;1.30;;
66437;SDS011;54537;47.972;11.662;2022-10-16T09:31:50;7.82;;;1.88;;
66437;SDS011;54537;47.972;11.662;2022-10-16T09:34:20;1.80;;;1.30;;
66437;SDS011;54537;47.972;11.662;2022-10-16T09:36:50;2.80;;;1.60;;
66437;SDS011;54537;47.972;11.662;2022-10-16T09:39:17;1.60;;;1.38;;
66437;SDS011;54537;47.972;11.662;2022-10-16T09:41:44;1.92;;;1.50;;
66437;SDS011;54537;47.972;11.662;2022-10-16T09:44:17;1.40;;;1.20;;
66437;SDS011;54537;47.972;11.662;2022-10-16T09:46:44;2.15;;;1.48;;
66437;SDS011;54537;47.972;11.662;2022-10-16T09:49:20;2.13;;;1.10;;
66437;SDS011;54537;47.972;11.662;2022-10-16T09:51:47;2.03;;;1.48;;
66437;SDS011;54537;47.972;11.662;2022-10-16T09:54:14;3.45;;;1.20;;
66437;SDS011;54537;47.972;11.662;2022-10-16T09:56:40;2.83;;;1.42;;
66437;SDS011;54537;47.972;11.662;2022-10-16T09:59:11;3.22;;;1.40;;
66437;SDS011;54537;47.972;11.662;2022-10-16T10:01:38;2.03;;;1.40;;
66437;SDS011;54537;47.972;11.662;2022-10-16T10:04:04;1.77;;;1.30;;
66437;SDS011;54537;47.972;11.662;2022-10-16T10:06:33;2.50;;;1.20;;
66437;SDS011;54537;47.972;11.662;2022-10-16T10:09:04;1.40;;;1.10;;
66437;SDS011;54537;47.972;11.662;2022-10-16T10:11:44;1.90;;;1.08;;
66437;SDS011;54537;47.972;11.662;2022-10-16T10:14:15;1.92;;;1.50;;
66437;SDS011;54537;47.972;11.662;2022-10-16T10:16:42;3.13;;;1.77;;
66437;SDS011;54537;47.972;11.662;2022-10-16T10:19:12;1.83;;;1.27;;
66437;SDS011;54537;47.972;11.662;2022-10-16T10:21:40;1.88;;;1.30;;
66437;SDS011;54537;47.972;11.662;2022-10-16T10:24:09;1.80;;;1.10;;
66437;SDS011;54537;47.972;11.662;2022-10-16T10:26:35;2.42;;;1.20;;
66437;SDS011;54537;47.972;11.662;2022-10-16T10:29:02;2.63;;;1.30;;
66437;SDS011;54537;47.972;11.662;2022-10-16T10:31:33;2.22;;;1.38;;
66437;SDS011;54537;47.972;11.662;2022-10-16T10:34:04;3.50;;;1.33;;
66437;SDS011;54537;47.972;11.662;2022-10-16T10:36:37;1.20;;;1.10;;
66437;SDS011;54537;47.972;11.662;2022-10-16T10:39:07;4.18;;;1.13;;
66437;SDS011;54537;47.972;11.662;2022-10-16T10:44:03;3.05;;;1.20;;
66437;SDS011;54537;47.972;11.662;2022-10-16T10:46:34;5.68;;;1.00;;
66437;SDS011;54537;47.972;11.662;2022-10-16T10:49:14;1.23;;;1.00;;
66437;SDS011;54537;47.972;11.662;2022-10-16T10:51:44;2.22;;;1.15;;
66437;SDS011;54537;47.972;11.662;2022-10-16T10:54:16;4.97;;;1.20;;
66437;SDS011;54537;47.972;11.662;2022-10-16T10:56:47;3.20;;;1.00;;
66437;SDS011;54537;47.972;11.662;2022-10-16T10:59:19;0.90;;;0.90;;
66437;SDS011;54537;47.972;11.662;2022-10-16T11:01:53;1.83;;;0.90;;
66437;SDS011;54537;47.972;11.662;2022-10-16T11:04:32;2.20;;;0.98;;
66437;SDS011;54537;47.972;11.662;2022-10-16T11:07:00;2.13;;;0.90;;
66437;SDS011;54537;47.972;11.662;2022-10-16T11:09:30;1.25;;;1.02;;
66437;SDS011;54537;47.972;11.662;2022-10-16T11:11:59;1.05;;;0.95;;
66437;SDS011;54537;47.972;11.662;2022-10-16T11:14:28;1.13;;;0.60;;
66437;SDS011;54537;47.972;11.662;2022-10-16T11:16:56;0.82;;;0.70;;
66437;SDS011;54537;47.972;11.662;2022-10-16T11:19:27;1.17;;;0.90;;
66437;SDS011;54537;47.972;11.662;2022-10-16T11:21:55;2.55;;;0.95;;
66437;SDS011;54537;47.972;11.662;2022-10-16T11:24:29;1.98;;;0.80;;
66437;SDS011;54537;47.972;11.662;2022-10-16T11:27:03;0.73;;;0.70;;
66437;SDS011;54537;47.972;11.662;2022-10-16T11:29:31;1.75;;;0.70;;
66437;SDS011;54537;47.972;11.662;2022-10-16T11:31:59;1.25;;;0.63;;
66437;SDS011;54537;47.972;11.662;2022-10-16T11:34:28;1.30;;;0.70;;
66437;SDS011;54537;47.972;11.662;2022-10-16T11:36:56;0.73;;;0.52;;
66437;SDS011;54537;47.972;11.662;2022-10-16T11:39:25;1.70;;;0.70;;
66437;SDS011;54537;47.972;11.662;2022-10-16T11:41:52;0.70;;;0.70;;
66437;SDS011;54537;47.972;11.662;2022-10-16T11:44:24;0.90;;;0.63;;
66437;SDS011;54537;47.972;11.662;2022-10-16T11:46:54;0.98;;;0.60;;
66437;SDS011;54537;47.972;11.662;2022-10-16T11:49:25;1.90;;;0.70;;
66437;SDS011;54537;47.972;11.662;2022-10-16T11:51:55;1.13;;;0.70;;
66437;SDS011;54537;47.972;11.662;2022-10-16T11:54:24;1.20;;;0.52;;
66437;SDS011;54537;47.972;11.662;2022-10-16T11:56:54;0.95;;;0.70;;
66437;SDS011;54537;47.972;11.662;2022-10-16T11:59:26;0.60;;;0.60;;
66437;SDS011;54537;47.972;11.662;2022-10-16T12:01:56;1.20;;;0.70;;
66437;SDS011;54537;47.972;11.662;2022-10-16T12:04:25;2.60;;;0.50;;
66437;SDS011;54537;47.972;11.662;2022-10-16T12:06:59;1.25;;;0.63;;
66437;SDS011;54537;47.972;11.662;2022-10-16T12:09:28;1.65;;;0.60;;
66437;SDS011;54537;47.972;11.662;2022-10-16T12:11:55;1.23;;;0.60;;
66437;SDS011;54537;47.972;11.662;2022-10-16T12:14:33;0.55;;;0.55;;
66437;SDS011;54537;47.972;11.662;2022-10-16T12:17:02;0.90;;;0.52;;
66437;SDS011;54537;47.972;11.662;2022-10-16T12:19:30;1.00;;;0.63;;
66437;SDS011;54537;47.972;11.662;2022-10-16T12:21:58;0.43;;;0.43;;
66437;SDS011;54537;47.972;11.662;2022-10-16T12:24:29;1.35;;;0.70;;
66437;SDS011;54537;47.972;11.662;2022-10-16T12:26:57;1.17;;;0.60;;
66437;SDS011;54537;47.972;11.662;2022-10-16T12:29:28;1.70;;;0.70;;
66437;SDS011;54537;47.972;11.662;2022-10-16T12:31:57;0.73;;;0.73;;
66437;SDS011;54537;47.972;11.662;2022-10-16T12:34:26;2.20;;;0.75;;
66437;SDS011;54537;47.972;11.662;2022-10-16T12:36:53;1.50;;;0.90;;
66437;SDS011;54537;47.972;11.662;2022-10-16T12:39:21;1.63;;;0.73;;
66437;SDS011;54537;47.972;11.662;2022-10-16T12:41:48;1.08;;;0.90;;
66437;SDS011;54537;47.972;11.662;2022-10-16T12:44:25;0.73;;;0.60;;
66437;SDS011;54537;47.972;11.662;2022-10-16T12:46:58;0.80;;;0.80;;
66437;SDS011;54537;47.972;11.662;2022-10-16T12:49:32;1.00;;;0.70;;
66437;SDS011;54537;47.972;11.662;2022-10-16T12:51:58;3.15;;;0.90;;
66437;SDS011;54537;47.972;11.662;2022-10-16T12:54:27;1.13;;;0.70;;
66437;SDS011;54537;47.972;11.662;2022-10-16T12:56:58;0.60;;;0.60;;
66437;SDS011;54537;47.972;11.662;2022-10-16T12:59:30;3.88;;;0.75;;
66437;SDS011;54537;47.972;11.662;2022-10-16T13:02:07;3.22;;;0.70;;
66437;SDS011;54537;47.972;11.662;2022-10-16T13:04:40;1.48;;;0.70;;
66437;SDS011;54537;47.972;11.662;2022-10-16T13:07:15;1.52;;;0.80;;
66437;SDS011;54537;47.972;11.662;2022-10-16T13:09:46;0.65;;;0.65;;
66437;SDS011;54537;47.972;11.662;2022-10-16T13:12:19;3.20;;;0.90;;
66437;SDS011;54537;47.972;11.662;2022-10-16T13:14:54;1.92;;;0.70;;
66437;SDS011;54537;47.972;11.662;2022-10-16T13:17:25;2.40;;;1.00;;
66437;SDS011;54537;47.972;11.662;2022-10-16T13:19:57;1.73;;;1.10;;
66437;SDS011;54537;47.972;11.662;2022-10-16T13:24:56;1.77;;;0.70;;
66437;SDS011;54537;47.972;11.662;2022-10-16T13:27:29;1.25;;;0.90;;
66437;SDS011;54537;47.972;11.662;2022-10-16T13:30:00;1.40;;;0.93;;
66437;SDS011;54537;47.972;11.662;2022-10-16T13:32:28;1.10;;;1.00;;
66437;SDS011;54537;47.972;11.662;2022-10-16T13:34:54;0.80;;;0.80;;
66437;SDS011;54537;47.972;11.662;2022-10-16T13:37:24;1.17;;;1.00;;
66437;SDS011;54537;47.972;11.662;2022-10-16T13:40:01;1.67;;;0.90;;
66437;SDS011;54537;47.972;11.662;2022-10-16T13:42:28;1.80;;;1.10;;
66437;SDS011;54537;47.972;11.662;2022-10-16T13:44:55;2.35;;;1.05;;
66437;SDS011;54537;47.972;11.662;2022-10-16T13:47:23;1.95;;;0.93;;
66437;SDS011;54537;47.972;11.662;2022-10-16T13:49:59;1.80;;;0.82;;
66437;SDS011;54537;47.972;11.662;2022-10-16T13:52:26;0.98;;;0.90;;
66437;SDS011;54537;47.972;11.662;2022-10-16T13:54:52;1.02;;;0.90;;
66437;SDS011;54537;47.972;11.662;2022-10-16T13:57:21;1.85;;;1.00;;
66437;SDS011;54537;47.972;11.662;2022-10-16T13:59:48;1.73;;;0.90;;
66437;SDS011;54537;47.972;11.662;2022-10-16T14:41:15;2.17;;;0.80;;
66437;SDS011;54537;47.972;11.662;2022-10-16T14:46:09;2.80;;;0.82;;
66437;SDS011;54537;47.972;11.662;2022-10-16T14:53:29;1.13;;;0.88;;
66437;SDS011;54537;47.972;11.662;2022-10-16T14:58:22;1.83;;;0.70;;
66437;SDS011;54537;47.972;11.662;2022-10-16T15:15:31;1.20;;;0.93;;
66437;SDS011;54537;47.972;11.662;2022-10-16T15:17:58;2.60;;;1.08;;
66437;SDS011;54537;47.972;11.662;2022-10-16T15:20:26;4.55;;;1.30;;
66437;SDS011;54537;47.972;11.662;2022-10-16T15:22:52;2.58;;;1.13;;
66437;SDS011;54537;47.972;11.662;2022-10-16T15:25:26;3.80;;;1.38;;
66437;SDS011;54537;47.972;11.662;2022-10-16T15:27:53;3.42;;;1.10;;
66437;SDS011;54537;47.972;11.662;2022-10-16T15:30:19;1.40;;;1.00;;
66437;SDS011;54537;47.972;11.662;2022-10-16T15:32:47;1.80;;;1.00;;
66437;SDS011;54537;47.972;11.662;2022-10-16T15:35:13;4.82;;;1.10;;
66437;SDS011;54537;47.972;11.662;2022-10-16T15:37:40;1.92;;;1.00;;
66437;SDS011;54537;47.972;11.662;2022-10-16T15:40:07;3.50;;;1.20;;
66437;SDS011;54537;47.972;11.662;2022-10-16T15:42:34;5.20;;;1.35;;
66437;SDS011;54537;47.972;11.662;2022-10-16T15:45:00;13.02;;;1.55;;
66437;SDS011;54537;47.972;11.662;2022-10-16T15:47:26;5.18;;;1.30;;
66437;SDS011;54537;47.972;11.662;2022-10-16T15:49:54;4.20;;;1.30;;
66437;SDS011;54537;47.972;11.662;2022-10-16T15:52:20;2.75;;;1.40;;
66437;SDS011;54537;47.972;11.662;2022-10-16T15:54:47;3.00;;;1.30;;
66437;SDS011;54537;47.972;11.662;2022-10-16T15:59:39;1.38;;;1.10;;
66437;SDS011;54537;47.972;11.662;2022-10-16T16:02:05;2.28;;;1.13;;
66437;SDS011;54537;47.972;11.662;2022-10-16T16:04:32;3.58;;;1.40;;
66437;SDS011;54537;47.972;11.662;2022-10-16T16:06:59;2.45;;;1.50;;
66437;SDS011;54537;47.972;11.662;2022-10-16T16:09:26;2.97;;;1.67;;
66437;SDS011;54537;47.972;11.662;2022-10-16T16:11:52;6.50;;;1.90;;
66437;SDS011;54537;47.972;11.662;2022-10-16T16:14:18;4.45;;;1.73;;
66437;SDS011;54537;47.972;11.662;2022-10-16T16:16:45;4.47;;;1.40;;
66437;SDS011;54537;47.972;11.662;2022-10-16T16:19:11;3.47;;;1.48;;
66437;SDS011;54537;47.972;11.662;2022-10-16T16:21:38;3.50;;;1.40;;
66437;SDS011;54537;47.972;11.662;2022-10-16T16:24:05;3.57;;;1.50;;
66437;SDS011;54537;47.972;11.662;2022-10-16T16:26:33;4.22;;;1.60;;
66437;SDS011;54537;47.972;11.662;2022-10-16T16:29:01;4.82;;;1.80;;
66437;SDS011;54537;47.972;11.662;2022-10-16T16:31:29;3.92;;;1.70;;
66437;SDS011;54537;47.972;11.662;2022-10-16T16:33:56;5.78;;;1.80;;
66437;SDS011;54537;47.972;11.662;2022-10-16T16:36:22;4.03;;;1.80;;
66437;SDS011;54537;47.972;11.662;2022-10-16T16:38:49;6.22;;;2.13;;
66437;SDS011;54537;47.972;11.662;2022-10-16T16:41:17;5.18;;;2.10;;
66437;SDS011;54537;47.972;11.662;2022-10-16T16:43:43;5.80;;;2.10;;
66437;SDS011;54537;47.972;11.662;2022-10-16T16:46:10;7.57;;;2.50;;
66437;SDS011;54537;47.972;11.662;2022-10-16T16:48:36;7.82;;;1.98;;
66437;SDS011;54537;47.972;11.662;2022-10-16T16:51:03;6.03;;;1.98;;
66437;SDS011;54537;47.972;11.662;2022-10-16T16:53:29;6.93;;;2.22;;
66437;SDS011;54537;47.972;11.662;2022-10-16T16:56:00;4.65;;;1.75;;
66437;SDS011;54537;47.972;11.662;2022-10-16T16:58:27;7.95;;;1.83;;
66437;SDS011;54537;47.972;11.662;2022-10-16T17:00:54;8.40;;;1.92;;
66437;SDS011;54537;47.972;11.662;2022-10-16T17:03:20;8.82;;;1.98;;
66437;SDS011;54537;47.972;11.662;2022-10-16T17:05:54;8.40;;;2.25;;
66437;SDS011;54537;47.972;11.662;2022-10-16T17:08:20;10.98;;;2.95;;
66437;SDS011;54537;47.972;11.662;2022-10-16T17:10:47;9.57;;;2.80;;
66437;SDS011;54537;47.972;11.662;2022-10-16T17:13:17;14.35;;;4.68;;
66437;SDS011;54537;47.972;11.662;2022-10-16T17:15:47;8.60;;;3.30;;
66437;SDS011;54537;47.972;11.662;2022-10-16T17:18:13;12.57;;;4.40;;
66437;SDS011;54537;47.972;11.662;2022-10-16T17:20:39;9.40;;;3.50;;
66437;SDS011;54537;47.972;11.662;2022-10-16T17:23:06;14.00;;;4.50;;
66437;SDS011;54537;47.972;11.662;2022-10-16T17:25:34;10.75;;;3.80;;
66437;SDS011;54537;47.972;11.662;2022-10-16T17:28:01;14.02;;;4.05;;
66437;SDS011;54537;47.972;11.662;2022-10-16T17:30:27;10.10;;;3.25;;
66437;SDS011;54537;47.972;11.662;2022-10-16T17:32:55;10.47;;;3.47;;
66437;SDS011;54537;47.972;11.662;2022-10-16T17:35:21;6.68;;;2.63;;
66437;SDS011;54537;47.972;11.662;2022-10-16T17:37:47;7.95;;;2.50;;
66437;SDS011;54537;47.972;11.662;2022-10-16T17:40:14;8.82;;;2.90;;
66437;SDS011;54537;47.972;11.662;2022-10-16T17:42:40;7.03;;;2.33;;
66437;SDS011;54537;47.972;11.662;2022-10-16T17:45:06;9.80;;;2.65;;
66437;SDS011;54537;47.972;11.662;2022-10-16T17:47:33;10.60;;;3.10;;
66437;SDS011;54537;47.972;11.662;2022-10-16T17:50:01;7.70;;;2.60;;
66437;SDS011;54537;47.972;11.662;2022-10-16T17:52:28;10.35;;;2.90;;
66437;SDS011;54537;47.972;11.662;2022-10-16T17:54:54;10.53;;;3.10;;
66437;SDS011;54537;47.972;11.662;2022-10-16T17:57:22;9.70;;;3.15;;
66437;SDS011;54537;47.972;11.662;2022-10-16T17:59:48;14.43;;;4.00;;
66437;SDS011;54537;47.972;11.662;2022-10-16T18:02:15;10.60;;;3.83;;
66437;SDS011;54537;47.972;11.662;2022-10-16T18:04:42;11.27;;;4.00;;
66437;SDS011;54537;47.972;11.662;2022-10-16T18:07:10;13.00;;;4.38;;
66437;SDS011;54537;47.972;11.662;2022-10-16T18:09:37;12.80;;;4.90;;
66437;SDS011;54537;47.972;11.662;2022-10-16T18:12:03;15.70;;;5.97;;
66437;SDS011;54537;47.972;11.662;2022-10-16T18:14:30;18.70;;;7.03;;
66437;SDS011;54537;47.972;11.662;2022-10-16T18:16:57;19.55;;;7.45;;
66437;SDS011;54537;47.972;11.662;2022-10-16T18:19:24;17.38;;;6.85;;
66437;SDS011;54537;47.972;11.662;2022-10-16T18:21:50;20.05;;;6.65;;
66437;SDS011;54537;47.972;11.662;2022-10-16T18:24:18;14.30;;;6.10;;
66437;SDS011;54537;47.972;11.662;2022-10-16T18:26:44;15.25;;;6.38;;
66437;SDS011;54537;47.972;11.662;2022-10-16T18:29:11;17.02;;;6.85;;
66437;SDS011;54537;47.972;11.662;2022-10-16T18:31:38;20.33;;;6.55;;
66437;SDS011;54537;47.972;11.662;2022-10-16T18:34:05;17.58;;;6.38;;
66437;SDS011;54537;47.972;11.662;2022-10-16T18:36:32;17.85;;;6.30;;
66437;SDS011;54537;47.972;11.662;2022-10-16T18:39:01;14.83;;;5.83;;
66437;SDS011;54537;47.972;11.662;2022-10-16T18:41:29;13.00;;;5.50;;
66437;SDS011;54537;47.972;11.662;2022-10-16T18:43:56;12.57;;;5.33;;
66437;SDS011;54537;47.972;11.662;2022-10-16T18:46:23;14.57;;;4.78;;
66437;SDS011;54537;47.972;11.662;2022-10-16T18:48:50;15.70;;;4.68;;
66437;SDS011;54537;47.972;11.662;2022-10-16T18:51:19;13.17;;;4.33;;
66437;SDS011;54537;47.972;11.662;2022-10-16T18:53:47;12.53;;;4.03;;
66437;SDS011;54537;47.972;11.662;2022-10-16T18:56:14;10.13;;;3.78;;
66437;SDS011;54537;47.972;11.662;2022-10-16T18:58:42;13.07;;;4.20;;
66437;SDS011;54537;47.972;11.662;2022-10-16T19:01:09;24.05;;;7.30;;
66437;SDS011;54537;47.972;11.662;2022-10-16T19:03:36;19.10;;;6.72;;
66437;SDS011;54537;47.972;11.662;2022-10-16T19:06:04;13.45;;;5.32;;
66437;SDS011;54537;47.972;11.662;2022-10-16T19:08:31;17.00;;;6.45;;
66437;SDS011;54537;47.972;11.662;2022-10-16T19:11:01;10.13;;;4.65;;
66437;SDS011;54537;47.972;11.662;2022-10-16T19:13:27;10.23;;;3.60;;
66437;SDS011;54537;47.972;11.662;2022-10-16T19:15:55;8.63;;;3.73;;
66437;SDS011;54537;47.972;11.662;2022-10-16T19:18:22;11.73;;;4.63;;
66437;SDS011;54537;47.972;11.662;2022-10-16T19:20:48;10.00;;;4.20;;
66437;SDS011;54537;47.972;11.662;2022-10-16T19:23:15;14.48;;;5.90;;
66437;SDS011;54537;47.972;11.662;2022-10-16T19:25:41;19.08;;;5.63;;
66437;SDS011;54537;47.972;11.662;2022-10-16T19:28:07;14.00;;;5.60;;
66437;SDS011;54537;47.972;11.662;2022-10-16T19:30:37;11.65;;;4.85;;
66437;SDS011;54537;47.972;11.662;2022-10-16T19:33:05;10.85;;;4.57;;
66437;SDS011;54537;47.972;11.662;2022-10-16T19:35:31;14.55;;;5.28;;
66437;SDS011;54537;47.972;11.662;2022-10-16T19:37:58;11.00;;;5.03;;
66437;SDS011;54537;47.972;11.662;2022-10-16T19:40:24;11.57;;;4.90;;
66437;SDS011;54537;47.972;11.662;2022-10-16T19:42:50;12.38;;;4.45;;
66437;SDS011;54537;47.972;11.662;2022-10-16T19:45:17;8.40;;;4.07;;
66437;SDS011;54537;47.972;11.662;2022-10-16T19:47:43;12.90;;;4.43;;
66437;SDS011;54537;47.972;11.662;2022-10-16T19:50:11;9.98;;;4.13;;
66437;SDS011;54537;47.972;11.662;2022-10-16T19:52:37;10.15;;;4.28;;
66437;SDS011;54537;47.972;11.662;2022-10-16T19:55:04;10.00;;;3.90;;
66437;SDS011;54537;47.972;11.662;2022-10-16T19:57:31;7.05;;;3.75;;
66437;SDS011;54537;47.972;11.662;2022-10-16T19:59:58;8.00;;;4.07;;
66437;SDS011;54537;47.972;11.662;2022-10-16T20:02:24;8.57;;;4.05;;
66437;SDS011;54537;47.972;11.662;2022-10-16T20:04:51;8.90;;;4.00;;
66437;SDS011;54537;47.972;11.662;2022-10-16T20:07:18;9.80;;;4.47;;
66437;SDS011;54537;47.972;11.662;2022-10-16T20:09:45;11.07;;;3.75;;
66437;SDS011;54537;47.972;11.662;2022-10-16T20:12:11;10.60;;;4.07;;
66437;SDS011;54537;47.972;11.662;2022-10-16T20:14:37;10.13;;;4.13;;
66437;SDS011;54537;47.972;11.662;2022-10-16T20:17:04;12.20;;;3.90;;
66437;SDS011;54537;47.972;11.662;2022-10-16T20:19:30;11.23;;;3.83;;
66437;SDS011;54537;47.972;11.662;2022-10-16T20:21:58;7.97;;;3.80;;
66437;SDS011;54537;47.972;11.662;2022-10-16T20:24:25;9.95;;;4.00;;
66437;SDS011;54537;47.972;11.662;2022-10-16T20:26:52;8.43;;;4.00;;
66437;SDS011;54537;47.972;11.662;2022-10-16T20:29:18;9.45;;;3.95;;
66437;SDS011;54537;47.972;11.662;2022-10-16T20:31:45;14.40;;;6.30;;
66437;SDS011;54537;47.972;11.662;2022-10-16T20:34:11;12.27;;;5.00;;
66437;SDS011;54537;47.972;11.662;2022-10-16T20:36:38;13.33;;;5.50;;
66437;SDS011;54537;47.972;11.662;2022-10-16T20:39:07;9.98;;;4.80;;
66437;SDS011;54537;47.972;11.662;2022-10-16T20:41:35;10.88;;;4.60;;
66437;SDS011;54537;47.972;11.662;2022-10-16T20:44:01;15.10;;;5.20;;
66437;SDS011;54537;47.972;11.662;2022-10-16T20:46:28;12.90;;;4.82;;
66437;SDS011;54537;47.972;11.662;2022-10-16T20:48:55;13.65;;;5.03;;
66437;SDS011;54537;47.972;11.662;2022-10-16T20:51:22;11.87;;;4.87;;
66437;SDS011;54537;47.972;11.662;2022-10-16T20:53:50;11.85;;;4.80;;
66437;SDS011;54537;47.972;11.662;2022-10-16T20:56:18;10.67;;;5.17;;
66437;SDS011;54537;47.972;11.662;2022-10-16T20:58:45;12.03;;;5.20;;
66437;SDS011;54537;47.972;11.662;2022-10-16T21:01:12;12.43;;;5.78;;
66437;SDS011;54537;47.972;11.662;2022-10-16T21:03:39;11.57;;;5.05;;
66437;SDS011;54537;47.972;11.662;2022-10-16T21:06:07;9.40;;;4.55;;
66437;SDS011;54537;47.972;11.662;2022-10-16T21:08:34;11.15;;;4.75;;
66437;SDS011;54537;47.972;11.662;2022-10-16T21:11:00;9.60;;;4.60;;
66437;SDS011;54537;47.972;11.662;2022-10-16T21:13:26;9.15;;;4.22;;
66437;SDS011;54537;47.972;11.662;2022-10-16T21:15:54;8.25;;;3.92;;
66437;SDS011;54537;47.972;11.662;2022-10-16T21:18:20;9.57;;;4.03;;
66437;SDS011;54537;47.972;11.662;2022-10-16T21:20:47;10.43;;;3.72;;
66437;SDS011;54537;47.972;11.662;2022-10-16T21:23:13;8.77;;;4.07;;
66437;SDS011;54537;47.972;11.662;2022-10-16T21:25:46;9.23;;;3.58;;
66437;SDS011;54537;47.972;11.662;2022-10-16T21:28:12;6.68;;;3.60;;
66437;SDS011;54537;47.972;11.662;2022-10-16T21:30:38;9.93;;;3.90;;
66437;SDS011;54537;47.972;11.662;2022-10-16T21:33:06;11.00;;;4.28;;
66437;SDS011;54537;47.972;11.662;2022-10-16T21:35:32;9.65;;;4.38;;
66437;SDS011;54537;47.972;11.662;2022-10-16T21:37:59;9.10;;;3.83;;
66437;SDS011;54537;47.972;11.662;2022-10-16T21:40:27;8.20;;;3.50;;
66437;SDS011;54537;47.972;11.662;2022-10-16T21:42:53;10.82;;;3.70;;
66437;SDS011;54537;47.972;11.662;2022-10-16T21:45:20;8.52;;;3.55;;
66437;SDS011;54537;47.972;11.662;2022-10-16T21:47:46;9.17;;;3.80;;
66437;SDS011;54537;47.972;11.662;2022-10-16T21:50:14;7.18;;;3.70;;
66437;SDS011;54537;47.972;11.662;2022-10-16T21:52:40;8.10;;;3.70;;
66437;SDS011;54537;47.972;11.662;2022-10-16T21:55:07;10.52;;;4.07;;
66437;SDS011;54537;47.972;11.662;2022-10-16T21:57:34;11.82;;;5.65;;
66437;SDS011;54537;47.972;11.662;2022-10-16T22:00:01;9.32;;;4.32;;
66437;SDS011;54537;47.972;11.662;2022-10-16T22:02:27;7.43;;;3.40;;
66437;SDS011;54537;47.972;11.662;2022-10-16T22:04:53;7.07;;;3.20;;
66437;SDS011;54537;47.972;11.662;2022-10-16T22:07:21;6.63;;;3.03;;
66437;SDS011;54537;47.972;11.662;2022-10-16T22:09:47;5.85;;;3.00;;
66437;SDS011;54537;47.972;11.662;2022-10-16T22:12:14;8.10;;;3.10;;
66437;SDS011;54537;47.972;11.662;2022-10-16T22:14:43;9.88;;;2.70;;
66437;SDS011;54537;47.972;11.662;2022-10-16T22:17:10;5.23;;;2.70;;
66437;SDS011;54537;47.972;11.662;2022-10-16T22:19:36;6.30;;;2.50;;
66437;SDS011;54537;47.972;11.662;2022-10-16T22:22:02;4.57;;;2.60;;
66437;SDS011;54537;47.972;11.662;2022-10-16T22:24:30;7.13;;;2.90;;
66437;SDS011;54537;47.972;11.662;2022-10-16T22:26:57;6.28;;;2.60;;
66437;SDS011;54537;47.972;11.662;2022-10-16T22:29:23;6.07;;;2.55;;
66437;SDS011;54537;47.972;11.662;2022-10-16T22:31:50;5.50;;;2.60;;
66437;SDS011;54537;47.972;11.662;2022-10-16T22:34:16;7.97;;;3.70;;
66437;SDS011;54537;47.972;11.662;2022-10-16T22:36:42;15.07;;;5.53;;
66437;SDS011;54537;47.972;11.662;2022-10-16T22:39:09;10.30;;;4.00;;
66437;SDS011;54537;47.972;11.662;2022-10-16T22:41:37;8.60;;;3.70;;
66437;SDS011;54537;47.972;11.662;2022-10-16T22:44:03;6.05;;;2.75;;
66437;SDS011;54537;47.972;11.662;2022-10-16T22:46:30;6.55;;;3.00;;
66437;SDS011;54537;47.972;11.662;2022-10-16T22:48:56;6.93;;;3.22;;
66437;SDS011;54537;47.972;11.662;2022-10-16T22:51:23;6.82;;;2.80;;
66437;SDS011;54537;47.972;11.662;2022-10-16T22:53:50;6.63;;;3.00;;
66437;SDS011;54537;47.972;11.662;2022-10-16T22:56:17;5.30;;;2.83;;
66437;SDS011;54537;47.972;11.662;2022-10-16T22:58:45;5.80;;;2.70;;
66437;SDS011;54537;47.972;11.662;2022-10-16T23:01:12;6.38;;;2.70;;
66437;SDS011;54537;47.972;11.662;2022-10-16T23:03:39;5.07;;;2.55;;
66437;SDS011;54537;47.972;11.662;2022-10-16T23:06:05;7.53;;;2.78;;
66437;SDS011;54537;47.972;11.662;2022-10-16T23:08:32;4.40;;;2.22;;
66437;SDS011;54537;47.972;11.662;2022-10-16T23:10:58;6.85;;;2.67;;
66437;SDS011;54537;47.972;11.662;2022-10-16T23:13:26;5.85;;;2.75;;
66437;SDS011;54537;47.972;11.662;2022-10-16T23:15:54;4.82;;;2.78;;
66437;SDS011;54537;47.972;11.662;2022-10-16T23:18:20;5.33;;;2.50;;
66437;SDS011;54537;47.972;11.662;2022-10-16T23:20:46;5.35;;;2.70;;
66437;SDS011;54537;47.972;11.662;2022-10-16T23:23:13;5.63;;;2.88;;
66437;SDS011;54537;47.972;11.662;2022-10-16T23:25:43;6.28;;;2.80;;
66437;SDS011;54537;47.972;11.662;2022-10-16T23:28:10;7.82;;;2.95;;
66437;SDS011;54537;47.972;11.662;2022-10-16T23:30:37;5.63;;;2.53;;
66437;SDS011;54537;47.972;11.662;2022-10-16T23:33:05;6.35;;;2.63;;
66437;SDS011;54537;47.972;11.662;2022-10-16T23:35:31;6.10;;;2.70;;
66437;SDS011;54537;47.972;11.662;2022-10-16T23:37:57;6.50;;;2.88;;
66437;SDS011;54537;47.972;11.662;2022-10-16T23:40:24;8.33;;;2.70;;
66437;SDS011;54537;47.972;11.662;2022-10-16T23:42:50;5.90;;;2.75;;
66437;SDS011;54537;47.972;11.662;2022-10-16T23:45:16;9.95;;;2.83;;
66437;SDS011;54537;47.972;11.662;2022-10-16T23:47:43;7.97;;;2.88;;
66437;SDS011;54537;47.972;11.662;2022-10-16T23:50:10;5.07;;;2.55;;
66437;SDS011;54537;47.972;11.662;2022-10-16T23:52:37;6.72;;;2.85;;
66437;SDS011;54537;47.972;11.662;2022-10-16T23:55:03;8.27;;;2.97;;
66437;SDS011;54537;47.972;11.662;2022-10-16T23:57:30;7.68;;;2.70;;
66437;SDS011;54537;47.972;11.662;2022-10-16T23:59:56;5.80;;;2.42;;
